Time;durP1;ratioP1;P1;durP2;ratioP2;P2;SDS_P1;SDS_P2;PMS_P1;PMS_P2;Temp;Humidity;BMP_temperature;BMP_pressure;BME280_temperature;BME280_humidity;BME280_pressure;Samples;Min_cycle;Max_cycle;Signal;HPM_P1;HPM_P2
2022/04/05 00:00:29;;;;;;;18.77;10.35;;;9.80;99.90;;;;;;4972455;28;20031;-93
2022/04/05 00:02:55;;;;;;;16.92;10.80;;;9.70;99.90;;;;;;4972552;28;20022;-94
2022/04/05 00:05:21;;;;;;;15.30;10.18;;;9.70;99.90;;;;;;4973993;28;20116;-94
2022/04/05 00:07:46;;;;;;;18.05;12.32;;;9.80;99.90;;;;;;4972724;28;20126;-93
2022/04/05 00:10:12;;;;;;;21.23;13.40;;;9.80;99.90;;;;;;4968888;28;20026;-94
2022/04/05 00:12:38;;;;;;;27.55;14.93;;;9.80;99.90;;;;;;4975479;28;20418;-94
2022/04/05 00:15:05;;;;;;;25.15;14.95;;;9.80;99.90;;;;;;4972935;28;20037;-95
2022/04/05 00:17:30;;;;;;;26.38;15.90;;;9.80;99.90;;;;;;4968132;28;20057;-93
2022/04/05 00:19:56;;;;;;;26.13;15.45;;;9.80;99.90;;;;;;4972443;28;20023;-93
2022/04/05 00:22:21;;;;;;;26.75;15.85;;;9.80;99.90;;;;;;4971989;28;20080;-93
2022/04/05 00:24:47;;;;;;;20.85;13.80;;;9.70;99.90;;;;;;4967979;28;20031;-94
2022/04/05 00:27:13;;;;;;;22.60;14.73;;;9.70;99.90;;;;;;4972825;28;20041;-94
2022/04/05 00:29:38;;;;;;;26.25;13.90;;;9.70;99.90;;;;;;4976518;28;20084;-94
2022/04/05 00:32:04;;;;;;;24.73;15.23;;;9.70;99.90;;;;;;4970355;28;20026;-92
2022/04/05 00:34:30;;;;;;;28.45;15.00;;;9.60;99.90;;;;;;4976113;28;20026;-95
2022/04/05 00:36:56;;;;;;;24.95;14.98;;;9.60;99.90;;;;;;4973443;28;20101;-93
2022/04/05 00:39:22;;;;;;;25.15;15.43;;;9.60;99.90;;;;;;4974814;28;20046;-93
2022/04/05 00:41:48;;;;;;;27.02;16.00;;;9.60;99.90;;;;;;4978171;28;20030;-94
2022/04/05 00:44:15;;;;;;;27.83;16.67;;;9.60;99.90;;;;;;4980689;28;20427;-93
2022/04/05 00:46:40;;;;;;;29.10;16.73;;;9.60;99.90;;;;;;4975271;28;20070;-92
2022/04/05 00:49:07;;;;;;;30.63;16.92;;;9.60;99.90;;;;;;4978869;28;20066;-92
2022/04/05 00:51:32;;;;;;;28.25;16.25;;;9.60;99.90;;;;;;4979613;28;20478;-92
2022/04/05 00:54:03;;;;;;;31.20;16.90;;;9.60;99.90;;;;;;4978425;28;20121;-92
2022/04/05 00:56:32;;;;;;;33.45;17.85;;;9.60;99.90;;;;;;4976370;28;20438;-92
2022/04/05 00:59:00;;;;;;;31.63;17.98;;;9.60;99.90;;;;;;4967892;28;20121;-92
2022/04/05 01:01:27;;;;;;;40.63;18.42;;;9.60;99.90;;;;;;4968993;28;20042;-92
2022/04/05 01:03:53;;;;;;;38.97;19.27;;;9.60;99.90;;;;;;4976735;28;20471;-92
2022/04/05 01:06:34;;;;;;;35.58;18.27;;;9.60;99.90;;;;;;4970017;28;20315;-92
2022/04/05 01:09:00;;;;;;;32.15;18.63;;;9.60;99.90;;;;;;4974219;28;20042;-91
2022/04/05 01:11:25;;;;;;;37.13;19.25;;;9.50;99.90;;;;;;4972564;28;20026;-91
2022/04/05 01:13:52;;;;;;;40.22;19.45;;;9.50;99.90;;;;;;4972475;28;20030;-91
2022/04/05 01:16:21;;;;;;;38.78;19.77;;;9.50;99.90;;;;;;4972688;28;20422;-91
2022/04/05 01:18:48;;;;;;;40.53;19.88;;;9.50;99.90;;;;;;4973632;28;20030;-91
2022/04/05 01:21:14;;;;;;;44.63;20.83;;;9.50;99.90;;;;;;4972481;28;20058;-91
2022/04/05 01:24:01;;;;;;;18.60;10.82;;;9.40;99.90;;;;;;4967930;28;20050;-92
2022/04/05 01:26:26;;;;;;;11.57;6.75;;;9.40;99.90;;;;;;4971388;28;20026;-92
2022/04/05 01:28:52;;;;;;;8.82;4.97;;;9.30;99.90;;;;;;4977668;28;20026;-92
2022/04/05 01:31:18;;;;;;;8.48;4.82;;;9.00;99.90;;;;;;4975231;28;20028;-92
2022/04/05 01:33:43;;;;;;;8.60;4.70;;;8.90;99.90;;;;;;4967307;28;20135;-92
2022/04/05 01:36:22;;;;;;;7.10;4.15;;;8.80;99.90;;;;;;4971824;28;20033;-92
2022/04/05 01:38:47;;;;;;;10.75;4.85;;;8.60;99.90;;;;;;4974389;28;20477;-92
2022/04/05 01:41:13;;;;;;;6.65;3.67;;;8.60;99.90;;;;;;4975489;28;20034;-92
2022/04/05 01:43:40;;;;;;;8.55;4.50;;;8.50;99.90;;;;;;4968013;28;20018;-92
2022/04/05 01:46:06;;;;;;;7.65;4.28;;;8.50;99.90;;;;;;4969543;28;20058;-93
2022/04/05 01:48:31;;;;;;;9.63;4.25;;;8.40;99.90;;;;;;4975798;28;20077;-94
2022/04/05 01:50:57;;;;;;;9.70;4.28;;;8.30;99.90;;;;;;4972267;28;20053;-94
2022/04/05 01:53:23;;;;;;;13.05;3.85;;;8.40;99.90;;;;;;4970470;28;20453;-93
2022/04/05 01:55:48;;;;;;;10.35;4.13;;;8.30;99.90;;;;;;4978314;28;20026;-92
2022/04/05 01:58:14;;;;;;;9.00;4.47;;;8.30;99.90;;;;;;4972306;28;20050;-93
2022/04/05 02:00:39;;;;;;;9.32;4.35;;;8.30;99.90;;;;;;4977021;28;20422;-94
2022/04/05 02:03:05;;;;;;;11.30;4.32;;;8.30;99.90;;;;;;4979025;28;20022;-95
2022/04/05 02:05:30;;;;;;;12.25;5.18;;;8.30;99.90;;;;;;4978153;28;20081;-94
2022/04/05 02:07:56;;;;;;;11.48;4.57;;;8.30;99.90;;;;;;4974865;28;20067;-94
2022/04/05 02:10:21;;;;;;;10.32;4.22;;;8.30;99.90;;;;;;4967554;28;20023;-96
2022/04/05 02:12:47;;;;;;;11.35;5.13;;;8.20;99.90;;;;;;4979353;28;20141;-95
2022/04/05 02:15:13;;;;;;;11.40;4.50;;;8.20;99.90;;;;;;4981442;28;20026;-94
2022/04/05 02:17:38;;;;;;;10.30;4.22;;;8.20;99.90;;;;;;4978018;28;20027;-94
2022/04/05 02:20:05;;;;;;;11.25;4.55;;;8.20;99.90;;;;;;4981602;28;20040;-95
2022/04/05 02:22:31;;;;;;;9.68;4.53;;;8.20;99.90;;;;;;4980178;28;20031;-95
2022/04/05 02:24:57;;;;;;;13.30;4.82;;;8.20;99.90;;;;;;4975014;28;20439;-95
2022/04/05 02:27:22;;;;;;;10.93;4.65;;;8.20;99.90;;;;;;4973039;28;20080;-96
2022/04/05 02:29:48;;;;;;;9.25;4.47;;;8.20;99.90;;;;;;4974728;28;20088;-95
2022/04/05 02:32:13;;;;;;;12.13;5.55;;;8.20;99.90;;;;;;4967078;28;20485;-95
2022/04/05 02:34:39;;;;;;;12.73;5.47;;;8.20;99.90;;;;;;4975493;28;20042;-96
2022/04/05 02:37:05;;;;;;;9.25;4.80;;;8.20;99.90;;;;;;4979823;28;20030;-95
2022/04/05 02:39:30;;;;;;;12.85;4.82;;;8.20;99.90;;;;;;4971832;28;20035;-95
2022/04/05 02:41:56;;;;;;;6.68;4.25;;;8.20;99.90;;;;;;4974815;28;20030;-95
2022/04/05 02:44:21;;;;;;;9.30;3.90;;;8.20;99.90;;;;;;4982229;28;20085;-95
2022/04/05 02:46:47;;;;;;;7.78;3.70;;;8.20;99.90;;;;;;4980518;28;20128;-96
2022/04/05 02:49:13;;;;;;;6.50;3.13;;;8.20;99.90;;;;;;4976335;28;20037;-95
2022/04/05 02:51:39;;;;;;;10.88;3.85;;;8.20;99.90;;;;;;4978143;28;20045;-94
2022/04/05 02:54:04;;;;;;;7.95;4.30;;;8.20;99.90;;;;;;4976312;28;20031;-95
2022/04/05 02:56:30;;;;;;;9.55;4.60;;;8.10;99.90;;;;;;4979641;28;20041;-95
2022/04/05 02:58:55;;;;;;;11.48;4.90;;;8.20;99.90;;;;;;4979871;28;20018;-95
2022/04/05 03:01:21;;;;;;;8.98;4.43;;;8.10;99.90;;;;;;4968286;28;20110;-94
2022/04/05 03:03:47;;;;;;;8.70;4.55;;;8.10;99.90;;;;;;4970506;28;20033;-95
2022/04/05 03:06:17;;;;;;;12.95;4.43;;;8.10;99.90;;;;;;4970924;28;20027;-95
2022/04/05 03:08:42;;;;;;;11.90;5.20;;;8.10;99.90;;;;;;4979166;28;20410;-96
2022/04/05 03:11:08;;;;;;;13.85;5.43;;;8.10;99.90;;;;;;4972445;28;20023;-95
2022/04/05 03:13:33;;;;;;;14.90;6.00;;;8.10;99.90;;;;;;4977872;28;20035;-96
2022/04/05 03:15:59;;;;;;;11.63;4.85;;;8.10;99.90;;;;;;4979250;28;20065;-96
2022/04/05 03:18:25;;;;;;;14.45;5.07;;;8.20;99.90;;;;;;4983096;28;20030;-95
2022/04/05 03:20:52;;;;;;;10.20;5.20;;;8.20;99.90;;;;;;4971521;28;20077;-96
2022/04/05 03:23:19;;;;;;;16.48;6.20;;;8.30;99.90;;;;;;4969977;28;20062;-96
2022/04/05 03:25:45;;;;;;;10.80;5.90;;;8.20;99.90;;;;;;4983845;28;20033;-96
2022/04/05 03:28:10;;;;;;;15.02;5.75;;;8.20;99.90;;;;;;4986676;28;20038;-96
2022/04/05 03:30:36;;;;;;;13.90;6.15;;;8.20;99.90;;;;;;4984288;28;20109;-95
2022/04/05 03:33:02;;;;;;;15.50;6.03;;;8.30;99.90;;;;;;4982542;28;20033;-96
2022/04/05 03:35:27;;;;;;;13.90;5.93;;;8.30;99.90;;;;;;4967719;28;20026;-95
2022/04/05 03:37:53;;;;;;;16.65;6.65;;;8.30;99.90;;;;;;4974059;28;20089;-95
2022/04/05 03:40:18;;;;;;;19.65;6.10;;;8.30;99.90;;;;;;4978843;28;20053;-96
2022/04/05 03:42:44;;;;;;;15.60;6.00;;;8.30;99.90;;;;;;4973865;28;20026;-96
2022/04/05 03:45:09;;;;;;;19.52;6.47;;;8.40;99.90;;;;;;4973700;28;20027;-96
2022/04/05 03:47:35;;;;;;;16.63;6.47;;;8.40;99.90;;;;;;4973270;28;20084;-96
2022/04/05 03:50:01;;;;;;;16.10;6.13;;;8.40;99.90;;;;;;4978635;28;20029;-96
2022/04/05 03:52:27;;;;;;;22.02;6.68;;;8.40;99.90;;;;;;4978491;28;20066;-96
2022/04/05 03:54:52;;;;;;;16.05;6.60;;;8.40;99.90;;;;;;4974115;28;20061;-95
2022/04/05 03:57:18;;;;;;;17.00;6.95;;;8.40;99.90;;;;;;4978076;28;20395;-95
2022/04/05 03:59:43;;;;;;;17.35;6.88;;;8.40;99.90;;;;;;4977940;28;20018;-96
2022/04/05 04:02:09;;;;;;;20.10;6.60;;;8.40;99.90;;;;;;4974090;28;20042;-96
2022/04/05 04:04:34;;;;;;;20.38;7.32;;;8.40;99.90;;;;;;4974515;28;20027;-95
2022/04/05 04:07:00;;;;;;;22.63;7.82;;;8.40;99.90;;;;;;4979161;28;20035;-96
2022/04/05 04:09:25;;;;;;;20.25;8.27;;;8.40;99.90;;;;;;4974440;28;20039;-96
2022/04/05 04:11:51;;;;;;;23.63;8.55;;;8.40;99.90;;;;;;4975699;28;20043;-95
2022/04/05 04:14:17;;;;;;;20.17;7.75;;;8.40;99.90;;;;;;4975031;28;20086;-96
2022/04/05 04:16:42;;;;;;;24.73;8.43;;;8.40;99.90;;;;;;4974867;28;20566;-96
2022/04/05 04:19:08;;;;;;;28.90;8.82;;;8.40;99.90;;;;;;4976599;28;20031;-96
2022/04/05 04:21:34;;;;;;;35.22;10.45;;;8.40;99.90;;;;;;4979590;28;20490;-96
2022/04/05 04:24:00;;;;;;;28.88;9.32;;;8.40;99.90;;;;;;4980431;28;20117;-96
2022/04/05 04:26:26;;;;;;;30.33;11.70;;;8.40;99.90;;;;;;4975195;28;20053;-96
2022/04/05 04:28:55;;;;;;;36.88;11.77;;;8.40;99.90;;;;;;4975598;28;20037;-96
2022/04/05 04:31:21;;;;;;;37.40;14.10;;;8.50;99.90;;;;;;4982183;28;20034;-96
2022/04/05 04:33:46;;;;;;;40.53;13.90;;;8.50;99.90;;;;;;4977066;28;20042;-96
2022/04/05 04:36:13;;;;;;;51.83;17.55;;;8.50;99.90;;;;;;4979090;28;20033;-96
2022/04/05 04:38:38;;;;;;;49.80;16.73;;;8.60;99.90;;;;;;4982574;28;20030;-96
2022/04/05 04:41:04;;;;;;;62.10;19.35;;;8.60;99.90;;;;;;4976240;28;20515;-95
2022/04/05 04:43:29;;;;;;;55.95;17.60;;;8.60;99.90;;;;;;4968333;28;20039;-95
2022/04/05 04:45:55;;;;;;;68.78;21.52;;;8.70;99.90;;;;;;4981075;28;20080;-96
2022/04/05 04:48:22;;;;;;;72.97;25.63;;;8.80;99.90;;;;;;4980643;28;20038;-95
2022/04/05 04:50:49;;;;;;;79.00;24.15;;;8.90;99.90;;;;;;4978439;28;20377;-96
2022/04/05 04:53:14;;;;;;;73.20;26.73;;;8.90;99.90;;;;;;4976389;28;20031;-96
2022/04/05 04:55:40;;;;;;;76.65;29.50;;;9.00;99.90;;;;;;4967595;28;20142;-96
2022/04/05 04:58:06;;;;;;;87.55;29.83;;;9.00;99.90;;;;;;4977603;28;20498;-96
2022/04/05 05:00:31;;;;;;;78.22;30.10;;;9.00;99.90;;;;;;4972949;28;20070;-96
2022/04/05 05:02:57;;;;;;;84.82;32.95;;;9.10;99.90;;;;;;4976612;28;20054;-96
2022/04/05 05:05:22;;;;;;;93.88;35.85;;;9.10;99.90;;;;;;4978308;28;20026;-96
2022/04/05 05:07:50;;;;;;;87.60;33.92;;;9.10;99.90;;;;;;4976043;28;20029;-96
2022/04/05 05:10:17;;;;;;;87.35;35.80;;;9.10;99.90;;;;;;4972617;28;20031;-95
2022/04/05 05:12:43;;;;;;;77.72;32.80;;;9.10;99.90;;;;;;4974318;28;20050;-95
2022/04/05 05:15:13;;;;;;;84.93;35.38;;;9.20;99.90;;;;;;4971000;28;20043;-95
2022/04/05 05:17:39;;;;;;;81.53;34.10;;;9.20;99.90;;;;;;4972850;28;20088;-96
2022/04/05 05:20:05;;;;;;;78.10;33.08;;;9.20;99.90;;;;;;4973018;28;20031;-95
2022/04/05 05:22:31;;;;;;;81.20;33.00;;;9.20;99.90;;;;;;4972466;28;20173;-96
2022/04/05 05:24:58;;;;;;;77.82;31.13;;;9.20;99.90;;;;;;4974269;28;20050;-94
2022/04/05 05:27:24;;;;;;;67.13;31.40;;;9.20;99.90;;;;;;4976031;28;20090;-94
2022/04/05 05:29:50;;;;;;;80.05;33.47;;;9.20;99.90;;;;;;4975244;28;20482;-94
2022/04/05 05:32:15;;;;;;;78.47;32.50;;;9.20;99.90;;;;;;4970139;28;20030;-95
2022/04/05 05:34:41;;;;;;;77.82;33.25;;;9.20;99.90;;;;;;4975013;28;20042;-94
2022/04/05 05:37:08;;;;;;;77.22;33.65;;;9.20;99.90;;;;;;4967994;28;20034;-94
2022/04/05 05:39:35;;;;;;;80.25;35.33;;;9.30;99.90;;;;;;4980057;28;20113;-94
2022/04/05 05:42:00;;;;;;;81.60;37.22;;;9.30;99.90;;;;;;4976512;28;20128;-93
2022/04/05 05:44:26;;;;;;;86.10;39.75;;;9.30;99.90;;;;;;4979379;28;20121;-94
2022/04/05 05:46:51;;;;;;;81.40;37.67;;;9.30;99.90;;;;;;4975922;28;20104;-94
2022/04/05 05:49:17;;;;;;;87.53;40.53;;;9.30;99.90;;;;;;4980006;28;20046;-94
2022/04/05 05:51:43;;;;;;;84.70;37.88;;;9.30;99.90;;;;;;4978778;28;20425;-93
2022/04/05 05:54:08;;;;;;;80.40;39.45;;;9.30;99.90;;;;;;4978371;28;20026;-92
2022/04/05 05:56:34;;;;;;;89.65;41.53;;;9.40;99.90;;;;;;4973499;28;20019;-94
2022/04/05 05:58:59;;;;;;;80.53;38.42;;;9.40;99.90;;;;;;4967026;28;20035;-93
2022/04/05 06:01:25;;;;;;;83.07;39.30;;;9.40;99.90;;;;;;4976084;28;20027;-93
2022/04/05 06:03:50;;;;;;;77.72;37.75;;;9.40;99.90;;;;;;4974423;28;20027;-94
2022/04/05 06:06:16;;;;;;;75.15;37.53;;;9.40;99.90;;;;;;4975880;28;20042;-95
2022/04/05 06:08:42;;;;;;;70.55;36.30;;;9.40;99.90;;;;;;4973158;28;20034;-93
2022/04/05 06:11:07;;;;;;;75.57;35.72;;;9.40;99.90;;;;;;4975168;28;20031;-94
2022/04/05 06:13:34;;;;;;;73.00;34.53;;;9.40;99.90;;;;;;4970305;28;20049;-92
2022/04/05 06:16:00;;;;;;;73.15;37.78;;;9.40;99.90;;;;;;4979488;28;20041;-94
2022/04/05 06:18:25;;;;;;;76.93;36.25;;;9.40;99.90;;;;;;4994197;28;20026;-93
2022/04/05 06:20:51;;;;;;;70.93;35.70;;;9.50;99.90;;;;;;4976882;28;20095;-93
2022/04/05 06:23:16;;;;;;;69.32;34.58;;;9.50;99.90;;;;;;4975979;28;20050;-93
2022/04/05 06:25:42;;;;;;;79.55;36.05;;;9.50;99.90;;;;;;4975367;28;20037;-93
2022/04/05 06:28:09;;;;;;;67.65;34.25;;;9.50;99.90;;;;;;4974566;28;20473;-94
2022/04/05 06:30:37;;;;;;;73.22;35.17;;;9.50;99.90;;;;;;4970535;28;20430;-94
2022/04/05 06:33:18;;;;;;;66.43;34.13;;;9.50;99.90;;;;;;4956665;28;20077;-94
2022/04/05 06:35:52;;;;;;;72.00;34.15;;;9.50;99.90;;;;;;4969046;28;20113;-94
2022/04/05 06:38:19;;;;;;;65.60;32.15;;;9.50;99.90;;;;;;4979445;28;20030;-95
2022/04/05 06:40:45;;;;;;;65.50;33.75;;;9.60;99.90;;;;;;4974329;28;20036;-94
2022/04/05 06:43:15;;;;;;;71.35;33.83;;;9.50;99.90;;;;;;4989198;28;20457;-95
2022/04/05 06:45:41;;;;;;;69.18;33.78;;;9.50;99.90;;;;;;4976461;28;20035;-95
2022/04/05 06:48:09;;;;;;;73.82;33.20;;;9.60;99.90;;;;;;4974677;28;20039;-95
2022/04/05 06:50:36;;;;;;;62.25;32.63;;;9.60;99.90;;;;;;4975210;28;20022;-94
2022/04/05 06:53:03;;;;;;;66.57;32.53;;;9.60;99.90;;;;;;4973544;28;20053;-94
2022/04/05 06:55:28;;;;;;;61.50;30.85;;;9.60;99.90;;;;;;4973542;28;20041;-94
2022/04/05 06:57:55;;;;;;;60.15;31.65;;;9.60;99.90;;;;;;4991211;28;20492;-93
2022/04/05 07:00:24;;;;;;;64.63;30.80;;;9.70;99.90;;;;;;4972486;28;20022;-94
2022/04/05 07:02:51;;;;;;;57.38;27.83;;;9.70;99.90;;;;;;4972452;28;20061;-93
2022/04/05 07:05:17;;;;;;;56.78;26.83;;;9.70;99.90;;;;;;4971713;28;20048;-93
2022/04/05 07:07:43;;;;;;;58.28;26.00;;;9.70;99.90;;;;;;4975877;28;20030;-93
2022/04/05 07:10:10;;;;;;;56.97;24.80;;;9.70;99.90;;;;;;4974009;28;20037;-92
2022/04/05 07:12:36;;;;;;;57.03;24.92;;;9.70;99.90;;;;;;4989195;28;21129;-92
2022/04/05 07:15:03;;;;;;;47.88;24.00;;;9.70;99.90;;;;;;4972855;28;20058;-92
2022/04/05 07:17:28;;;;;;;46.55;23.50;;;9.70;99.90;;;;;;4966725;28;20037;-91
2022/04/05 07:19:54;;;;;;;44.83;22.38;;;9.80;99.90;;;;;;4973614;28;20022;-92
2022/04/05 07:22:19;;;;;;;47.53;22.63;;;9.80;99.90;;;;;;4978234;28;20031;-91
2022/04/05 07:24:46;;;;;;;43.20;20.42;;;9.80;99.90;;;;;;4976291;28;20026;-93
2022/04/05 07:27:12;;;;;;;41.80;21.17;;;9.80;99.90;;;;;;4969130;28;20402;-93
2022/04/05 07:29:39;;;;;;;40.70;21.02;;;9.80;99.90;;;;;;4973794;28;20026;-92
2022/04/05 07:32:05;;;;;;;46.80;22.55;;;9.80;99.90;;;;;;4972045;28;20026;-93
2022/04/05 07:34:30;;;;;;;44.20;20.77;;;9.80;99.90;;;;;;4972755;28;20774;-92
2022/04/05 07:36:56;;;;;;;46.08;22.15;;;9.80;99.90;;;;;;4986883;28;20109;-93
2022/04/05 07:39:23;;;;;;;42.67;21.30;;;9.80;99.90;;;;;;4974943;28;20680;-92
2022/04/05 07:41:49;;;;;;;44.35;19.77;;;9.80;99.90;;;;;;4974194;28;20033;-92
2022/04/05 07:44:14;;;;;;;38.03;18.52;;;9.80;99.90;;;;;;4973412;28;20537;-93
2022/04/05 07:46:40;;;;;;;37.58;18.58;;;9.80;99.90;;;;;;4972647;28;20065;-91
2022/04/05 07:49:05;;;;;;;41.38;18.30;;;9.90;99.90;;;;;;4972269;28;20066;-92
2022/04/05 07:51:31;;;;;;;32.70;18.45;;;10.00;99.90;;;;;;4970661;28;20056;-93
2022/04/05 07:53:56;;;;;;;35.35;18.40;;;10.10;99.90;;;;;;4973157;28;20390;-92
2022/04/05 07:56:22;;;;;;;33.88;18.08;;;10.10;99.90;;;;;;4973116;28;20057;-94
2022/04/05 07:58:48;;;;;;;36.65;19.60;;;10.20;99.90;;;;;;4969627;28;20126;-92
2022/04/05 08:01:13;;;;;;;34.50;17.00;;;10.10;99.90;;;;;;4973732;28;20027;-93
2022/04/05 08:03:39;;;;;;;36.67;17.60;;;10.20;99.90;;;;;;4988622;28;20035;-93
2022/04/05 08:06:05;;;;;;;32.58;17.02;;;10.20;99.90;;;;;;4984437;28;20034;-94
2022/04/05 08:08:31;;;;;;;33.15;17.33;;;10.20;99.90;;;;;;4994428;28;20049;-95
2022/04/05 08:10:57;;;;;;;32.38;16.83;;;10.30;99.90;;;;;;4969617;28;20022;-93
2022/04/05 08:13:23;;;;;;;29.50;15.98;;;10.30;99.90;;;;;;4975792;28;20121;-93
2022/04/05 08:15:49;;;;;;;29.48;14.73;;;10.30;99.90;;;;;;4972027;28;20027;-93
2022/04/05 08:18:14;;;;;;;33.40;15.82;;;10.20;99.90;;;;;;4975011;28;20109;-92
2022/04/05 08:20:41;;;;;;;37.30;15.98;;;10.30;99.90;;;;;;4967959;28;20129;-91
2022/04/05 08:23:09;;;;;;;34.75;14.88;;;10.30;99.90;;;;;;4975176;28;20026;-91
2022/04/05 08:25:35;;;;;;;27.48;14.13;;;10.30;99.90;;;;;;4972260;28;20053;-91
2022/04/05 08:28:01;;;;;;;26.60;13.75;;;10.30;99.90;;;;;;4965542;28;20102;-91
2022/04/05 08:30:26;;;;;;;28.23;14.73;;;10.40;99.90;;;;;;4977811;28;20061;-91
2022/04/05 08:32:52;;;;;;;26.77;15.85;;;10.50;99.90;;;;;;4974916;28;20038;-91
2022/04/05 08:35:20;;;;;;;32.92;16.67;;;10.60;99.90;;;;;;4973507;28;20133;-90
2022/04/05 08:37:46;;;;;;;26.25;16.02;;;10.70;99.90;;;;;;4974483;28;20043;-91
2022/04/05 08:40:14;;;;;;;28.90;15.50;;;10.80;99.90;;;;;;4967790;28;20050;-91
2022/04/05 08:42:45;;;;;;;27.10;16.27;;;10.90;99.90;;;;;;4992538;28;20030;-91
2022/04/05 08:45:13;;;;;;;29.25;15.38;;;10.90;99.90;;;;;;4972352;28;20138;-91
2022/04/05 08:47:46;;;;;;;30.35;15.57;;;10.80;99.90;;;;;;4974919;28;20026;-91
2022/04/05 08:50:17;;;;;;;21.85;13.18;;;10.80;99.90;;;;;;4977792;28;20509;-93
2022/04/05 08:52:44;;;;;;;26.00;14.77;;;10.70;99.90;;;;;;4964439;28;20023;-92
2022/04/05 08:55:10;;;;;;;28.08;14.73;;;10.60;99.90;;;;;;4977022;28;20034;-92
2022/04/05 08:57:36;;;;;;;27.42;13.95;;;10.60;99.90;;;;;;4981148;28;20680;-93
2022/04/05 09:00:06;;;;;;;27.60;14.77;;;10.60;99.90;;;;;;4994739;28;20034;-94
2022/04/05 09:02:31;;;;;;;30.23;14.75;;;10.50;99.90;;;;;;4979933;28;20086;-92
2022/04/05 09:04:57;;;;;;;25.20;15.02;;;10.50;99.90;;;;;;4973339;28;20030;-93
2022/04/05 09:07:25;;;;;;;30.63;15.32;;;10.50;99.90;;;;;;4980374;28;20023;-92
2022/04/05 09:10:06;;;;;;;27.33;16.40;;;10.50;99.90;;;;;;4990159;28;20050;-93
2022/04/05 09:12:50;;;;;;;29.40;16.90;;;10.50;99.90;;;;;;4986074;28;20146;-91
2022/04/05 09:15:18;;;;;;;29.83;18.33;;;10.50;99.90;;;;;;4976201;28;20573;-93
2022/04/05 09:17:46;;;;;;;31.58;17.65;;;10.60;99.90;;;;;;4975328;28;20034;-93
2022/04/05 09:20:13;;;;;;;26.92;15.82;;;10.70;99.90;;;;;;4974216;28;20050;-92
2022/04/05 09:22:39;;;;;;;22.17;15.02;;;10.70;99.90;;;;;;4977326;28;20026;-94
2022/04/05 09:25:15;;;;;;;28.50;17.25;;;10.60;99.90;;;;;;4978992;28;20030;-95
2022/04/05 09:27:45;;;;;;;26.40;16.98;;;10.50;99.90;;;;;;4973332;28;20102;-95
2022/04/05 09:30:15;;;;;;;22.52;16.23;;;10.40;99.90;;;;;;4976265;28;20042;-94
2022/04/05 09:32:44;;;;;;;24.38;16.77;;;10.30;99.90;;;;;;4974816;28;20026;-94
2022/04/05 09:35:10;;;;;;;19.38;13.98;;;10.30;99.90;;;;;;4978405;28;20034;-94
2022/04/05 09:37:39;;;;;;;20.25;13.98;;;10.20;99.90;;;;;;4976809;28;20034;-95
2022/04/05 09:40:17;;;;;;;23.15;16.05;;;10.20;99.90;;;;;;4970816;28;20030;-94
2022/04/05 09:43:18;;;;;;;26.42;18.38;;;10.20;99.90;;;;;;4996543;28;20491;-94
2022/04/05 09:45:58;;;;;;;27.77;17.15;;;10.20;99.90;;;;;;4987353;28;20030;-96
2022/04/05 09:48:33;;;;;;;28.40;16.30;;;10.10;99.90;;;;;;4993294;28;20097;-95
2022/04/05 09:51:14;;;;;;;28.15;17.65;;;10.20;99.90;;;;;;4984063;28;20027;-94
2022/04/05 09:53:50;;;;;;;32.40;17.63;;;10.20;99.90;;;;;;4982023;28;20092;-96
2022/04/05 09:56:31;;;;;;;29.63;18.42;;;10.30;99.90;;;;;;4985090;28;20038;-94
2022/04/05 09:59:03;;;;;;;30.00;19.20;;;10.40;99.90;;;;;;4991264;28;20529;-96
2022/04/05 10:01:29;;;;;;;29.67;18.70;;;10.40;99.90;;;;;;4975788;28;20027;-96
2022/04/05 10:04:09;;;;;;;30.45;19.60;;;10.50;99.90;;;;;;4982472;28;20035;-95
2022/04/05 10:07:06;;;;;;;33.38;18.55;;;10.40;99.90;;;;;;5000408;28;20023;-96
2022/04/05 10:09:33;;;;;;;27.70;17.73;;;10.40;99.90;;;;;;4989318;28;20038;-96
2022/04/05 10:12:00;;;;;;;27.13;16.55;;;10.40;99.90;;;;;;4992506;28;20055;-96
2022/04/05 10:14:26;;;;;;;25.00;15.73;;;10.40;99.90;;;;;;4983728;28;20039;-96
2022/04/05 10:16:52;;;;;;;25.70;16.83;;;10.40;99.90;;;;;;4978202;28;20030;-96
2022/04/05 10:19:19;;;;;;;27.48;16.63;;;10.50;99.90;;;;;;4980639;28;20042;-96
2022/04/05 10:21:47;;;;;;;26.92;16.00;;;10.40;99.90;;;;;;4966724;28;20022;-96
2022/04/05 10:24:13;;;;;;;23.67;16.02;;;10.50;99.90;;;;;;4963914;28;20066;-96
2022/04/05 10:26:41;;;;;;;25.40;16.80;;;10.50;99.90;;;;;;4981937;28;20089;-95
2022/04/05 10:29:10;;;;;;;25.10;16.33;;;10.50;99.90;;;;;;4964804;28;20478;-96
2022/04/05 10:31:42;;;;;;;23.17;16.92;;;10.60;99.90;;;;;;4981911;28;20030;-94
2022/04/05 10:34:22;;;;;;;20.75;16.38;;;10.70;99.90;;;;;;4979428;28;20098;-96
2022/04/05 10:37:04;;;;;;;23.35;17.77;;;10.80;99.90;;;;;;4971940;28;20034;-96
2022/04/05 10:39:29;;;;;;;26.13;17.07;;;10.90;99.90;;;;;;4975965;28;20068;-96
2022/04/05 10:42:13;;;;;;;28.38;18.45;;;10.90;99.90;;;;;;4978140;28;20395;-95
2022/04/05 10:44:41;;;;;;;24.92;17.85;;;10.90;99.90;;;;;;4962846;28;20035;-95
2022/04/05 10:47:07;;;;;;;27.88;19.17;;;10.90;99.90;;;;;;4970615;28;20050;-93
2022/04/05 10:49:40;;;;;;;27.83;20.13;;;10.90;99.90;;;;;;4976343;28;20030;-94
2022/04/05 10:52:06;;;;;;;26.98;18.88;;;10.90;99.90;;;;;;4990146;28;20062;-94
2022/04/05 10:54:52;;;;;;;24.42;17.83;;;10.90;99.90;;;;;;4997284;28;20022;-96
2022/04/05 10:57:29;;;;;;;23.27;17.48;;;10.90;99.90;;;;;;4989541;28;20464;-95
2022/04/05 11:00:15;;;;;;;23.63;17.65;;;10.90;99.90;;;;;;5000036;28;20015;-94
2022/04/05 11:02:47;;;;;;;21.50;17.15;;;10.80;99.90;;;;;;4977330;28;20035;-96
2022/04/05 11:05:13;;;;;;;23.00;18.02;;;10.70;99.90;;;;;;4982814;28;20033;-95
2022/04/05 11:08:04;;;;;;;25.48;17.95;;;10.70;99.90;;;;;;4975870;28;20033;-95
2022/04/05 11:10:47;;;;;;;24.90;18.92;;;10.70;99.90;;;;;;4961407;28;20035;-95
2022/04/05 11:13:18;;;;;;;24.17;18.35;;;10.70;99.90;;;;;;4957862;28;20051;-95
2022/04/05 11:15:48;;;;;;;26.52;18.40;;;10.70;99.90;;;;;;4959376;28;20126;-94
2022/04/05 11:18:16;;;;;;;27.00;17.55;;;10.70;99.90;;;;;;4971336;28;20122;-94
2022/04/05 11:20:44;;;;;;;24.33;17.80;;;10.70;99.90;;;;;;4977228;28;20061;-95
2022/04/05 11:23:12;;;;;;;23.65;16.52;;;10.70;99.90;;;;;;4973984;28;20129;-95
2022/04/05 11:25:37;;;;;;;23.83;16.27;;;10.70;99.90;;;;;;4984060;28;20026;-94
2022/04/05 11:28:12;;;;;;;21.63;15.82;;;10.80;99.90;;;;;;4988877;28;20042;-93
2022/04/05 11:30:45;;;;;;;22.70;16.60;;;10.90;99.90;;;;;;4976716;28;20039;-94
2022/04/05 11:33:24;;;;;;;23.92;16.08;;;11.00;99.90;;;;;;4971118;28;20037;-92
2022/04/05 11:35:58;;;;;;;21.33;15.55;;;11.10;99.90;;;;;;4974490;28;20079;-94
2022/04/05 11:38:27;;;;;;;23.00;16.48;;;11.30;99.90;;;;;;5000512;28;20027;-92
2022/04/05 11:41:03;;;;;;;18.25;15.85;;;11.30;99.90;;;;;;4971950;28;20039;-95
2022/04/05 11:43:42;;;;;;;21.20;15.93;;;11.40;99.90;;;;;;4964038;28;20030;-93
2022/04/05 11:46:14;;;;;;;19.92;16.05;;;11.50;99.90;;;;;;4968085;28;20118;-92
2022/04/05 11:48:50;;;;;;;20.95;16.60;;;11.70;99.90;;;;;;4972199;28;20039;-94
2022/04/05 11:51:22;;;;;;;17.50;15.52;;;11.80;99.90;;;;;;4974822;28;20034;-95
2022/04/05 11:53:49;;;;;;;20.52;15.07;;;11.80;99.90;;;;;;4969670;28;20041;-93
2022/04/05 11:56:25;;;;;;;18.92;14.95;;;11.70;99.90;;;;;;4966787;28;20098;-93
2022/04/05 11:58:59;;;;;;;17.80;14.13;;;11.70;99.90;;;;;;4970798;28;20035;-94
2022/04/05 12:01:29;;;;;;;19.63;14.70;;;11.60;99.90;;;;;;4977740;28;20031;-93
2022/04/05 12:04:01;;;;;;;22.00;15.48;;;11.60;99.90;;;;;;4973430;28;20572;-93
2022/04/05 12:06:32;;;;;;;17.45;14.05;;;11.60;99.90;;;;;;4974535;28;20034;-92
2022/04/05 12:09:18;;;;;;;23.33;15.10;;;11.50;99.90;;;;;;4975812;28;20027;-92
2022/04/05 12:11:51;;;;;;;16.60;13.50;;;11.60;99.90;;;;;;4974583;28;20289;-94
2022/04/05 12:14:20;;;;;;;18.70;14.60;;;11.70;99.90;;;;;;4959173;28;20029;-92
2022/04/05 12:17:00;;;;;;;16.50;14.25;;;11.70;99.90;;;;;;4970939;28;20057;-93
2022/04/05 12:19:30;;;;;;;19.02;15.52;;;11.60;99.90;;;;;;4973372;28;20027;-92
2022/04/05 12:22:00;;;;;;;22.30;17.33;;;11.50;99.90;;;;;;4958985;28;20105;-93
2022/04/05 12:24:26;;;;;;;17.30;14.70;;;11.50;99.90;;;;;;4971327;28;20039;-93
2022/04/05 12:26:56;;;;;;;21.48;15.38;;;11.60;99.90;;;;;;4966562;28;20387;-93
2022/04/05 12:29:21;;;;;;;16.58;13.13;;;11.70;99.90;;;;;;4977580;28;20042;-93
2022/04/05 12:31:47;;;;;;;14.43;11.35;;;11.80;99.90;;;;;;4976360;28;20065;-91
2022/04/05 12:34:14;;;;;;;18.27;11.90;;;11.70;99.90;;;;;;4975425;28;20030;-90
2022/04/05 12:36:53;;;;;;;14.13;11.90;;;11.70;99.90;;;;;;4977255;28;20030;-91
2022/04/05 12:39:21;;;;;;;15.25;11.85;;;11.80;99.90;;;;;;4982331;28;20031;-92